Time;durP1;ratioP1;P1;durP2;ratioP2;P2;SDS_P1;SDS_P2;PMS_P1;PMS_P2;Temp;Humidity;BMP_temperature;BMP_pressure;BME280_temperature;BME280_humidity;BME280_pressure;Samples;Min_cycle;Max_cycle;Signal;HPM_P1;HPM_P2
2021/11/12 00:02:09;;;;;;;;;;;;;;;15.41;77.32;101940.88;1049585;28;1669;-61
2021/11/12 00:02:19;;;;;;;;;;;;;;;15.38;77.59;101925.84;1049523;28;1522;-62
2021/11/12 00:12:28;;;;;;;;;;;;;;;15.37;77.45;101909.84;1053164;28;954;-62
2021/11/12 00:13:19;;;;;;;;;;;;;;;15.36;77.72;101905.44;1048966;28;749;-59
2021/11/12 00:14:10;;;;;;;;;;;;;;;15.35;77.57;101907.25;1048826;28;772;-59
2021/11/12 00:15:01;;;;;;;;;;;;;;;15.35;77.87;101904.56;1049413;28;901;-60
2021/11/12 00:15:52;;;;;;;;;;;;;;;15.36;77.75;101905.44;1049618;28;818;-60
2021/11/12 00:16:43;;;;;;;;;;;;;;;15.36;77.80;101905.44;1049433;28;809;-62
2021/11/12 00:17:34;;;;;;;;;;;;;;;15.35;77.74;101901.03;1049632;28;624;-62
2021/11/12 00:18:24;;;;;;;;;;;;;;;15.34;77.97;101907.34;1049564;28;685;-62
2021/11/12 00:19:15;;;;;;;;;;;;;;;15.34;78.02;101905.53;1049272;28;850;-62
2021/11/12 00:20:05;;;;;;;;;;;;;;;15.33;77.67;101900.25;1049458;28;768;-62
2021/11/12 00:20:56;;;;;;;;;;;;;;;15.33;77.99;101906.50;1050647;28;1444;-62
2021/11/12 00:21:47;;;;;;;;;;;;;;;15.34;78.14;101902.84;1047110;28;1588;-62
2021/11/12 00:22:37;;;;;;;;;;;;;;;15.35;77.53;101906.38;1046714;28;1658;-61
2021/11/12 00:23:27;;;;;;;;;;;;;;;15.33;78.29;101906.50;1048576;28;1348;-62
2021/11/12 00:24:18;;;;;;;;;;;;;;;15.33;78.29;101909.19;1049072;28;1688;-62
2021/11/12 00:25:08;;;;;;;;;;;;;;;15.33;78.21;101909.19;1052066;28;1576;-62
2021/11/12 00:25:59;;;;;;;;;;;;;;;15.33;78.08;101903.81;1050846;28;1488;-62
2021/11/12 00:27:03;;;;;;;;;;;;;;;15.33;77.66;101895.75;1051676;28;1555;-62
2021/11/12 00:27:54;;;;;;;;;;;;;;;15.32;77.97;101896.72;1050381;28;1606;-62
2021/11/12 00:28:54;;;;;;;;;;;;;;;15.33;77.44;101901.13;1052616;28;1592;-62
2021/11/12 00:29:50;;;;;;;;;;;;;;;15.32;78.23;101901.22;1048657;28;1561;-62
2021/11/12 00:31:05;;;;;;;;;;;;;;;15.32;77.51;101903.91;1052233;28;1593;-62
2021/11/12 00:32:05;;;;;;;;;;;;;;;15.32;77.95;101901.22;1052339;28;1511;-62
2021/11/12 00:35:04;;;;;;;;;;;;;;;15.29;77.81;101894.22;1047814;28;1512;-62
2021/11/12 00:38:19;;;;;;;;;;;;;;;15.29;77.85;101889.72;1050383;28;1489;-61
2021/11/12 00:39:20;;;;;;;;;;;;;;;15.29;77.59;101899.59;1053008;28;1529;-61
2021/11/12 00:40:20;;;;;;;;;;;;;;;15.29;77.96;101894.22;1051491;28;1459;-60
2021/11/12 00:42:14;;;;;;;;;;;;;;;15.28;78.99;101890.69;1049459;28;1594;-61
2021/11/12 00:43:10;;;;;;;;;;;;;;;15.27;78.04;101894.34;1049443;28;1518;-61
2021/11/12 00:44:12;;;;;;;;;;;;;;;15.28;77.83;101895.19;1052104;28;1418;-61
2021/11/12 00:45:03;;;;;;;;;;;;;;;15.28;78.39;101889.81;1052641;28;1652;-61
2021/11/12 00:46:08;;;;;;;;;;;;;;;15.27;78.21;101888.09;1050229;28;1703;-61
2021/11/12 00:47:07;;;;;;;;;;;;;;;15.26;78.29;101886.38;1053691;28;818;-61
2021/11/12 00:48:10;;;;;;;;;;;;;;;15.26;78.81;101889.91;1051950;28;1503;-61
2021/11/12 00:49:05;;;;;;;;;;;;;;;15.26;78.02;101886.38;1052242;28;1548;-61
2021/11/12 00:52:05;;;;;;;;;;;;;;;15.27;77.55;101883.59;1051611;28;1407;-60
2021/11/12 00:54:19;;;;;;;;;;;;;;;15.26;78.30;101878.31;1049517;28;1448;-61
2021/11/12 00:55:02;;;;;;;;;;;;;;;15.27;78.76;101880.03;1052039;28;1592;-61
2021/11/12 00:55:53;;;;;;;;;;;;;;;15.27;78.40;101885.41;1052758;28;1554;-61
2021/11/12 00:56:43;;;;;;;;;;;;;;;15.26;78.35;101883.69;1048781;28;881;-62
2021/11/12 00:57:34;;;;;;;;;;;;;;;15.25;78.86;101888.19;1049052;28;797;-61
2021/11/12 00:58:24;;;;;;;;;;;;;;;15.25;78.14;101880.16;1049231;28;763;-61
2021/11/12 00:59:15;;;;;;;;;;;;;;;15.25;78.01;101884.66;1050085;28;1394;-61
2021/11/12 01:00:05;;;;;;;;;;;;;;;15.25;78.07;101876.59;1051690;28;1569;-62
2021/11/12 01:00:56;;;;;;;;;;;;;;;15.25;77.91;101885.50;1049282;28;1705;-61
2021/11/12 01:01:46;;;;;;;;;;;;;;;15.25;77.80;101887.34;1052744;28;1434;-62
2021/11/12 01:02:37;;;;;;;;;;;;;;;15.24;78.63;101885.63;1050904;28;1569;-62
2021/11/12 01:03:27;;;;;;;;;;;;;;;15.24;77.77;101878.41;1051587;28;1453;-61
2021/11/12 01:04:18;;;;;;;;;;;;;;;15.24;77.72;101883.78;1052809;28;1601;-61
2021/11/12 01:05:08;;;;;;;;;;;;;;;15.24;78.72;101885.63;1048635;28;1304;-61
2021/11/12 01:05:59;;;;;;;;;;;;;;;15.23;77.98;101878.53;1052222;28;1579;-61
2021/11/12 01:06:49;;;;;;;;;;;;;;;15.22;79.29;101879.53;1049802;28;1454;-61
2021/11/12 01:07:40;;;;;;;;;;;;;;;15.22;78.47;101883.06;1050093;28;1581;-61
2021/11/12 01:08:30;;;;;;;;;;;;;;;15.21;78.57;101875.97;1048786;28;1356;-61
2021/11/12 01:09:21;;;;;;;;;;;;;;;15.21;78.83;101875.09;1049927;28;1581;-61
2021/11/12 01:10:11;;;;;;;;;;;;;;;15.21;78.73;101877.78;1049260;28;1913;-61
2021/11/12 01:11:02;;;;;;;;;;;;;;;15.21;77.96;101880.47;1053747;28;1471;-62
2021/11/12 01:11:52;;;;;;;;;;;;;;;15.20;78.16;101878.75;1049024;28;1489;-62
2021/11/12 01:12:43;;;;;;;;;;;;;;;15.21;77.82;101880.47;1048927;28;1536;-62
2021/11/12 01:13:35;;;;;;;;;;;;;;;15.20;78.57;101879.63;1049088;28;1465;-62
2021/11/12 01:14:26;;;;;;;;;;;;;;;15.20;78.34;101876.06;1048862;28;1485;-62
2021/11/12 01:15:16;;;;;;;;;;;;;;;15.21;79.56;101880.47;1051944;28;1363;-61
2021/11/12 01:16:07;;;;;;;;;;;;;;;15.18;78.92;101881.53;1051073;28;1354;-62
2021/11/12 01:16:57;;;;;;;;;;;;;;;15.20;79.56;101876.06;1049092;28;1591;-61
2021/11/12 01:17:48;;;;;;;;;;;;;;;15.19;79.17;101882.41;1048936;28;1350;-62
2021/11/12 01:18:38;;;;;;;;;;;;;;;15.19;79.24;101883.28;1048976;28;1503;-62
2021/11/12 01:19:28;;;;;;;;;;;;;;;15.18;79.10;101881.53;1049515;28;1590;-61
2021/11/12 01:20:19;;;;;;;;;;;;;;;15.19;77.97;101875.22;1051652;28;1574;-61
2021/11/12 01:21:10;;;;;;;;;;;;;;;15.19;78.38;101882.41;1051538;28;1382;-62
2021/11/12 01:22:01;;;;;;;;;;;;;;;15.19;78.50;101879.72;1049984;28;1483;-61
2021/11/12 01:22:51;;;;;;;;;;;;;;;15.19;78.75;101879.72;1052504;28;1490;-61
2021/11/12 01:23:42;;;;;;;;;;;;;;;15.18;79.06;101876.16;1048558;28;1507;-60
2021/11/12 01:24:33;;;;;;;;;;;;;;;15.18;78.43;101878.00;1051185;28;1344;-60
2021/11/12 01:25:23;;;;;;;;;;;;;;;15.18;78.76;101870.81;1050183;28;1517;-61
2021/11/12 01:26:14;;;;;;;;;;;;;;;15.18;78.78;101875.31;1050491;28;1422;-61
2021/11/12 01:27:05;;;;;;;;;;;;;;;15.18;78.11;101869.94;1049196;28;1418;-61
2021/11/12 01:27:56;;;;;;;;;;;;;;;15.20;79.58;101873.38;1052325;28;1572;-61
2021/11/12 01:28:46;;;;;;;;;;;;;;;15.18;78.37;101870.81;1050774;28;1360;-61
2021/11/12 01:29:38;;;;;;;;;;;;;;;15.18;78.41;101867.25;1050571;28;1585;-62
2021/11/12 01:30:29;;;;;;;;;;;;;;;15.18;78.77;101870.81;1049100;28;1898;-62
2021/11/12 01:31:28;;;;;;;;;;;;;;;15.17;78.21;101873.59;1048267;28;705;-61
2021/11/12 01:32:19;;;;;;;;;;;;;;;15.17;78.12;101878.97;1047913;28;792;-61
2021/11/12 01:33:10;;;;;;;;;;;;;;;15.17;78.30;101868.22;1049004;28;745;-62
2021/11/12 01:34:06;;;;;;;;;;;;;;;15.17;79.81;101865.53;1049020;28;860;-61
2021/11/12 01:34:57;;;;;;;;;;;;;;;15.17;79.46;101869.09;1048036;28;717;-62
2021/11/12 01:35:47;;;;;;;;;;;;;;;15.16;78.70;101866.50;1049270;28;783;-62
2021/11/12 01:36:40;;;;;;;;;;;;;;;15.14;79.15;101863.06;1049075;28;671;-61
2021/11/12 01:37:31;;;;;;;;;;;;;;;15.13;79.04;101861.31;1048061;28;706;-61
2021/11/12 01:38:23;;;;;;;;;;;;;;;15.13;78.83;101855.97;1049032;28;913;-61
2021/11/12 01:39:13;;;;;;;;;;;;;;;15.12;78.65;101855.09;1049133;28;1371;-62
2021/11/12 01:40:08;;;;;;;;;;;;;;;15.12;78.87;101852.41;1053216;28;696;-61
2021/11/12 01:41:00;;;;;;;;;;;;;;;15.11;80.40;101852.50;1052412;28;705;-62
2021/11/12 01:41:57;;;;;;;;;;;;;;;15.12;79.27;101854.25;1052704;28;697;-62
2021/11/12 01:42:48;;;;;;;;;;;;;;;15.10;80.47;101850.78;1052284;28;811;-62
2021/11/12 01:43:42;;;;;;;;;;;;;;;15.09;79.66;101854.44;1052955;28;634;-62
2021/11/12 01:44:38;;;;;;;;;;;;;;;15.08;80.21;101853.59;1052611;28;849;-62
2021/11/12 01:45:36;;;;;;;;;;;;;;;15.08;79.31;101853.59;1051963;28;718;-62
2021/11/12 01:48:31;;;;;;;;;;;;;;;15.08;79.71;101852.72;1048245;28;1432;-62
2021/11/12 01:49:27;;;;;;;;;;;;;;;15.08;79.83;101845.53;1048537;28;638;-62
2021/11/12 01:50:23;;;;;;;;;;;;;;;15.07;79.80;101841.13;1049054;28;1955;-61
2021/11/12 01:51:27;;;;;;;;;;;;;;;15.07;79.83;101840.25;1048346;28;630;-62
2021/11/12 01:52:22;;;;;;;;;;;;;;;15.08;79.21;101841.97;1048375;28;658;-62
2021/11/12 01:53:15;;;;;;;;;;;;;;;15.08;78.57;101839.28;1048337;28;817;-61
2021/11/12 01:56:27;;;;;;;;;;;;;;;15.06;79.92;101828.66;1048813;28;647;-61
2021/11/12 01:57:25;;;;;;;;;;;;;;;15.06;79.83;101827.78;1048903;28;848;-61
2021/11/12 01:59:26;;;;;;;;;;;;;;;15.05;80.11;101829.63;1046042;28;976;-61
2021/11/12 02:00:16;;;;;;;;;;;;;;;15.06;79.85;101827.78;1048988;28;901;-60
2021/11/12 02:01:07;;;;;;;;;;;;;;;15.03;79.36;101823.53;1048131;28;748;-59
2021/11/12 02:01:59;;;;;;;;;;;;;;;15.04;80.27;101821.69;1048366;28;1188;-60
2021/11/12 02:02:49;;;;;;;;;;;;;;;15.03;80.08;101818.16;1049067;28;853;-60
2021/11/12 02:03:39;;;;;;;;;;;;;;;15.03;79.80;101818.16;1048677;28;836;-60
2021/11/12 02:04:30;;;;;;;;;;;;;;;15.04;79.68;101824.38;1048435;28;678;-60
2021/11/12 02:05:20;;;;;;;;;;;;;;;15.04;79.50;101819.88;1048562;28;835;-60
2021/11/12 02:06:13;;;;;;;;;;;;;;;15.04;79.80;101819.88;1048496;28;922;-60
2021/11/12 02:07:04;;;;;;;;;;;;;;;15.04;79.96;101824.38;1048171;28;721;-60
2021/11/12 02:07:54;;;;;;;;;;;;;;;15.02;80.00;101821.81;1048479;28;704;-61
2021/11/12 02:08:45;;;;;;;;;;;;;;;15.03;79.97;101822.66;1047996;28;618;-61
2021/11/12 02:09:36;;;;;;;;;;;;;;;15.02;80.28;101824.50;1048384;28;1035;-61
2021/11/12 02:10:26;;;;;;;;;;;;;;;15.04;80.12;101824.38;1048994;28;1910;-61
2021/11/12 02:11:17;;;;;;;;;;;;;;;15.03;80.01;101819.97;1049169;28;720;-60
2021/11/12 02:12:17;;;;;;;;;;;;;;;15.01;80.14;101820.09;1048988;28;771;-60
2021/11/12 02:13:18;;;;;;;;;;;;;;;15.01;80.45;101814.72;1047696;28;700;-61
2021/11/12 02:14:08;;;;;;;;;;;;;;;15.02;79.74;101810.22;1049008;28;895;-62
2021/11/12 02:15:00;;;;;;;;;;;;;;;15.01;79.04;101803.97;1049026;28;739;-60
2021/11/12 02:15:51;;;;;;;;;;;;;;;15.02;80.27;101810.22;1047658;28;922;-60
2021/11/12 02:16:46;;;;;;;;;;;;;;;15.02;79.60;101804.84;1049794;28;1819;-62
2021/11/12 02:17:40;;;;;;;;;;;;;;;15.01;80.05;101801.28;1050963;28;1476;-61
2021/11/12 02:18:35;;;;;;;;;;;;;;;15.00;80.00;101810.31;1051485;28;1400;-62
2021/11/12 02:19:27;;;;;;;;;;;;;;;15.00;80.18;101804.06;1052222;28;1477;-62
2021/11/12 02:20:22;;;;;;;;;;;;;;;15.00;80.19;101813.00;1050983;28;1426;-62
2021/11/12 02:21:25;;;;;;;;;;;;;;;15.00;79.51;101813.00;1050005;28;1418;-62
2021/11/12 02:22:16;;;;;;;;;;;;;;;15.00;79.43;101806.75;1051749;28;1303;-61
2021/11/12 02:23:07;;;;;;;;;;;;;;;15.00;79.95;101812.13;1050980;28;1475;-62
2021/11/12 02:24:04;;;;;;;;;;;;;;;14.99;79.06;101810.41;1046422;28;1576;-62
2021/11/12 02:25:05;;;;;;;;;;;;;;;15.01;79.56;101811.16;1045200;28;1364;-61
2021/11/12 02:25:57;;;;;;;;;;;;;;;15.01;79.47;101817.41;1046438;28;1480;-61
2021/11/12 02:26:55;;;;;;;;;;;;;;;15.00;79.83;101817.50;1045582;28;1714;-60
2021/11/12 02:27:54;;;;;;;;;;;;;;;15.01;78.96;101813.84;1045459;28;645;-60
2021/11/12 02:28:46;;;;;;;;;;;;;;;15.00;79.50;101807.63;1045369;28;712;-61
2021/11/12 02:29:44;;;;;;;;;;;;;;;15.01;79.77;101813.84;1049165;28;672;-61
2021/11/12 02:30:34;;;;;;;;;;;;;;;15.00;79.17;101809.44;1048297;28;1010;-61
2021/11/12 02:31:25;;;;;;;;;;;;;;;15.00;80.52;101810.31;1049028;28;779;-60
2021/11/12 02:32:17;;;;;;;;;;;;;;;15.01;79.84;101808.47;1051041;28;1450;-61
2021/11/12 02:33:08;;;;;;;;;;;;;;;14.99;80.16;101802.34;1051842;28;1490;-60
2021/11/12 02:33:58;;;;;;;;;;;;;;;15.00;80.39;101809.44;1051310;28;1580;-60
2021/11/12 02:34:50;;;;;;;;;;;;;;;14.98;80.34;101809.53;1048524;28;1577;-60
2021/11/12 02:35:40;;;;;;;;;;;;;;;14.98;79.59;101812.22;1048297;28;1508;-61
2021/11/12 02:36:31;;;;;;;;;;;;;;;14.99;80.13;101810.41;1048873;28;1649;-60
2021/11/12 02:37:21;;;;;;;;;;;;;;;14.98;80.38;101809.53;1048809;28;1558;-61
2021/11/12 02:38:12;;;;;;;;;;;;;;;14.98;79.27;101808.69;1049370;28;1366;-60
2021/11/12 02:39:02;;;;;;;;;;;;;;;14.98;79.75;101809.53;1050947;28;1339;-60
2021/11/12 02:39:52;;;;;;;;;;;;;;;14.98;79.38;101806.00;1048840;28;756;-60
2021/11/12 02:40:43;;;;;;;;;;;;;;;14.99;78.95;101805.03;1048595;28;1626;-60
2021/11/12 02:41:35;;;;;;;;;;;;;;;14.97;80.01;101809.66;1048198;28;1564;-61
2021/11/12 02:42:25;;;;;;;;;;;;;;;14.99;80.29;101807.72;1048086;28;1626;-60
2021/11/12 02:43:16;;;;;;;;;;;;;;;14.97;79.85;101796.22;1048709;28;1378;-60
2021/11/12 02:44:06;;;;;;;;;;;;;;;14.97;79.97;101796.22;1051684;28;1704;-61
2021/11/12 02:44:57;;;;;;;;;;;;;;;14.96;80.21;101797.19;1048710;28;814;-61
2021/11/12 02:45:48;;;;;;;;;;;;;;;14.97;80.28;101796.22;1048269;28;1342;-60
2021/11/12 02:46:40;;;;;;;;;;;;;;;14.97;80.05;101799.78;1051293;28;1631;-61
2021/11/12 02:47:30;;;;;;;;;;;;;;;14.98;79.19;101803.31;1051961;28;625;-60
2021/11/12 02:48:20;;;;;;;;;;;;;;;14.98;79.75;101798.81;1053252;28;675;-61
2021/11/12 02:49:11;;;;;;;;;;;;;;;14.98;79.52;101792.59;1053035;28;727;-59
2021/11/12 02:50:01;;;;;;;;;;;;;;;14.97;80.45;101798.91;1053115;28;709;-60
2021/11/12 02:50:52;;;;;;;;;;;;;;;14.97;79.46;101796.22;1053017;28;809;-61
2021/11/12 02:51:43;;;;;;;;;;;;;;;14.97;79.60;101806.97;1052274;28;641;-60
2021/11/12 02:52:33;;;;;;;;;;;;;;;14.96;80.22;101800.72;1053019;28;673;-61
2021/11/12 02:53:24;;;;;;;;;;;;;;;14.97;79.44;101802.47;1053130;28;831;-60
2021/11/12 02:54:14;;;;;;;;;;;;;;;14.96;79.38;101795.38;1052898;28;1409;-60
2021/11/12 02:55:04;;;;;;;;;;;;;;;14.97;80.07;101796.22;1052635;28;1622;-61
2021/11/12 02:56:00;;;;;;;;;;;;;;;14.96;80.22;101784.63;1052096;28;1548;-60
2021/11/12 02:56:54;;;;;;;;;;;;;;;14.95;80.38;101785.59;1051278;28;1815;-61
2021/11/12 02:57:46;;;;;;;;;;;;;;;14.96;80.06;101783.78;1045544;28;1592;-61
2021/11/12 02:58:38;;;;;;;;;;;;;;;14.94;79.31;101778.50;1048285;28;1563;-61
2021/11/12 02:59:29;;;;;;;;;;;;;;;14.96;79.07;101776.56;1049201;28;1501;-61
2021/11/12 03:00:20;;;;;;;;;;;;;;;14.96;79.39;101773.03;1048871;28;724;-61
2021/11/12 03:01:10;;;;;;;;;;;;;;;14.97;79.06;101769.38;1048836;28;754;-61
2021/11/12 03:02:04;;;;;;;;;;;;;;;14.96;79.47;101762.28;1051656;28;1286;-60
2021/11/12 03:02:54;;;;;;;;;;;;;;;14.97;79.48;101764.88;1052989;28;766;-60
2021/11/12 03:03:45;;;;;;;;;;;;;;;14.96;79.47;101754.25;1052582;28;875;-60
2021/11/12 03:04:35;;;;;;;;;;;;;;;14.97;79.42;101758.66;1053162;28;1478;-60
2021/11/12 03:05:26;;;;;;;;;;;;;;;14.94;79.01;101749.84;1048423;28;1487;-60
2021/11/12 03:06:17;;;;;;;;;;;;;;;14.94;79.68;101755.22;1048657;28;1565;-60
2021/11/12 03:07:07;;;;;;;;;;;;;;;14.95;80.22;101761.44;1048737;28;1348;-60
2021/11/12 03:07:58;;;;;;;;;;;;;;;14.95;79.71;101758.75;1049293;28;942;-60
2021/11/12 03:08:48;;;;;;;;;;;;;;;14.94;79.70;101759.72;1048414;28;1877;-60
2021/11/12 03:09:39;;;;;;;;;;;;;;;14.93;79.56;101761.53;1048658;28;1327;-60
2021/11/12 03:10:29;;;;;;;;;;;;;;;14.93;79.85;101758.00;1047934;28;1969;-60
2021/11/12 03:11:19;;;;;;;;;;;;;;;14.92;79.88;101765.19;1048166;28;635;-59
2021/11/12 03:12:10;;;;;;;;;;;;;;;14.93;80.30;101769.59;1047946;28;726;-60
2021/11/12 03:13:00;;;;;;;;;;;;;;;14.93;78.16;101772.28;1048300;28;746;-59
2021/11/12 03:13:51;;;;;;;;;;;;;;;14.94;79.39;101765.09;1049278;28;799;-60
2021/11/12 03:14:41;;;;;;;;;;;;;;;14.94;79.18;101768.63;1048249;28;728;-59
2021/11/12 03:15:32;;;;;;;;;;;;;;;14.94;78.73;101768.63;1047997;28;614;-61
2021/11/12 03:16:22;;;;;;;;;;;;;;;14.94;79.86;101771.31;1048155;28;1115;-61
2021/11/12 03:17:13;;;;;;;;;;;;;;;14.93;80.01;101768.72;1048347;28;743;-61
2021/11/12 03:18:03;;;;;;;;;;;;;;;14.92;79.40;101767.88;1048038;28;777;-61
2021/11/12 03:18:54;;;;;;;;;;;;;;;14.91;79.71;101763.47;1048252;28;782;-59
2021/11/12 03:19:45;;;;;;;;;;;;;;;14.90;80.03;101767.09;1048348;28;760;-59
2021/11/12 03:20:37;;;;;;;;;;;;;;;14.90;79.45;101764.44;1048406;28;851;-60
2021/11/12 03:21:28;;;;;;;;;;;;;;;14.91;79.75;101757.25;1048606;28;766;-61
2021/11/12 03:22:21;;;;;;;;;;;;;;;14.90;79.81;101759.06;1048202;28;653;-60
2021/11/12 03:23:17;;;;;;;;;;;;;;;14.90;79.73;101750.16;1048331;28;772;-60
2021/11/12 03:24:16;;;;;;;;;;;;;;;14.89;78.91;101749.28;1048112;28;753;-61
2021/11/12 03:25:14;;;;;;;;;;;;;;;14.90;79.75;101747.47;1048267;28;701;-60
2021/11/12 03:26:16;;;;;;;;;;;;;;;14.89;79.39;101749.28;1048217;28;726;-61
2021/11/12 03:27:25;;;;;;;;;;;;;;;14.89;80.38;101749.28;1048839;28;855;-60
2021/11/12 03:29:21;;;;;;;;;;;;;;;14.89;79.66;101756.47;1048140;28;1516;-59
2021/11/12 03:30:45;;;;;;;;;;;;;;;14.90;79.28;101750.16;1051581;28;1889;-59
2021/11/12 04:00:39;;;;;;;;;;;;;;;14.83;79.36;101682.63;1041634;28;878;-61
2021/11/12 04:01:41;;;;;;;;;;;;;;;14.82;80.06;101688.97;1051853;28;788;-60
2021/11/12 04:06:31;;;;;;;;;;;;;;;14.82;79.39;101663.97;1052732;28;902;-60
2021/11/12 04:17:57;;;;;;;;;;;;;;;14.79;79.35;101646.25;1051640;28;633;-61
2021/11/12 04:20:02;;;;;;;;;;;;;;;14.78;79.00;101647.22;1052182;28;649;-61
2021/11/12 04:21:03;;;;;;;;;;;;;;;14.78;80.05;101647.22;1052819;28;734;-61
2021/11/12 05:11:48;;;;;;;;;;;;;;;14.72;78.01;101614.56;1052673;28;905;-60
2021/11/12 05:26:42;;;;;;;;;;;;;;;15.13;75.38;101609.81;1053164;28;759;-60
2021/11/12 05:43:35;;;;;;;;;;;;;;;15.29;74.91;101604.19;1052603;28;625;-61
2021/11/12 05:44:03;;;;;;;;;;;;;;;15.29;74.93;101566.59;1056837;28;1828;-61
2021/11/12 05:46:08;;;;;;;;;;;;;;;15.28;75.15;101581.84;1052531;28;1220;-60
2021/11/12 05:50:43;;;;;;;;;;;;;;;15.24;74.91;101595.59;1052129;28;1968;-60
2021/11/12 05:55:05;;;;;;;;;;;;;;;15.23;75.27;101596.56;1053757;28;700;-60
2021/11/12 05:55:08;;;;;;;;;;;;;;;15.21;74.96;101585.13;1053223;28;982;-60
2021/11/12 05:55:59;;;;;;;;;;;;;;;15.20;75.30;101584.25;1051667;28;849;-60
2021/11/12 05:56:49;;;;;;;;;;;;;;;15.20;75.31;101586.94;1052839;28;927;-60
2021/11/12 05:57:40;;;;;;;;;;;;;;;15.20;74.93;101591.44;1053366;28;688;-59
2021/11/12 05:58:30;;;;;;;;;;;;;;;15.19;74.92;101587.06;1051959;28;705;-61
2021/11/12 05:59:21;;;;;;;;;;;;;;;15.18;75.06;101586.19;1051660;28;921;-60
2021/11/12 06:00:11;;;;;;;;;;;;;;;15.20;75.09;101594.13;1052525;28;2132;-59
2021/11/12 06:01:02;;;;;;;;;;;;;;;15.20;74.80;101589.63;1056720;28;862;-60
2021/11/12 06:01:52;;;;;;;;;;;;;;;15.20;75.57;101592.31;1056663;28;1471;-60
2021/11/12 06:02:43;;;;;;;;;;;;;;;15.21;74.95;101590.47;1052831;28;688;-60
2021/11/12 06:03:34;;;;;;;;;;;;;;;15.21;75.02;101590.47;1054704;28;1905;-60
2021/11/12 06:04:24;;;;;;;;;;;;;;;15.20;75.24;101586.94;1053154;28;787;-60
2021/11/12 06:05:18;;;;;;;;;;;;;;;15.19;74.60;101581.69;1052656;28;865;-60
2021/11/12 06:06:09;;;;;;;;;;;;;;;15.19;75.50;101576.31;1053160;28;754;-61
2021/11/12 06:06:59;;;;;;;;;;;;;;;15.17;75.26;101579.09;1053108;28;853;-61
2021/11/12 06:07:50;;;;;;;;;;;;;;;15.16;75.29;101579.22;1052114;28;789;-61
2021/11/12 06:08:41;;;;;;;;;;;;;;;15.14;75.19;101571.25;1054967;28;1882;-61
2021/11/12 06:09:31;;;;;;;;;;;;;;;15.16;75.22;101572.00;1051707;28;886;-61
2021/11/12 06:10:22;;;;;;;;;;;;;;;15.19;75.64;101581.69;1050180;28;1914;-61
2021/11/12 06:11:12;;;;;;;;;;;;;;;15.21;76.89;101579.75;1055059;28;1438;-60
2021/11/12 06:12:03;;;;;;;;;;;;;;;15.23;77.78;101575.09;1053303;28;763;-61
2021/11/12 06:12:53;;;;;;;;;;;;;;;15.24;78.81;101574.97;1051897;28;660;-60
2021/11/12 06:13:44;;;;;;;;;;;;;;;15.26;79.03;101586.47;1052165;28;745;-60
2021/11/12 06:14:34;;;;;;;;;;;;;;;15.26;78.84;101581.09;1052956;28;987;-61
2021/11/12 06:15:24;;;;;;;;;;;;;;;15.25;78.61;101581.22;1052164;28;692;-60
2021/11/12 06:16:15;;;;;;;;;;;;;;;15.26;78.41;101581.09;1052298;28;705;-60
2021/11/12 06:17:06;;;;;;;;;;;;;;;15.25;78.66;101573.16;1052063;28;802;-61
2021/11/12 06:17:57;;;;;;;;;;;;;;;15.26;78.84;101572.19;1051691;28;711;-60
2021/11/12 06:18:48;;;;;;;;;;;;;;;15.25;78.70;101565.09;1054827;28;1888;-63
2021/11/12 06:19:39;;;;;;;;;;;;;;;15.24;78.45;101563.38;1056670;28;786;-61
2021/11/12 06:20:30;;;;;;;;;;;;;;;15.23;78.54;101556.28;1055623;28;2107;-60
2021/11/12 06:21:20;;;;;;;;;;;;;;;15.22;78.48;101559.97;1052442;28;827;-61
2021/11/12 06:22:11;;;;;;;;;;;;;;;15.22;78.46;101562.66;1055391;28;1502;-61
2021/11/12 06:23:01;;;;;;;;;;;;;;;15.21;77.92;101550.22;1054406;28;1495;-61
2021/11/12 06:23:51;;;;;;;;;;;;;;;15.21;78.07;101558.25;1054380;28;1506;-61
2021/11/12 06:24:42;;;;;;;;;;;;;;;15.20;78.23;101540.44;1053099;28;1496;-61
2021/11/12 06:25:32;;;;;;;;;;;;;;;15.20;77.76;101545.81;1053007;28;1486;-61
2021/11/12 06:26:23;;;;;;;;;;;;;;;15.20;78.06;101540.44;1052282;28;1522;-61
2021/11/12 06:27:13;;;;;;;;;;;;;;;15.20;77.91;101535.06;1056228;28;1365;-61
2021/11/12 06:28:04;;;;;;;;;;;;;;;15.18;77.83;101523.59;1054746;28;1406;-61
2021/11/12 06:28:55;;;;;;;;;;;;;;;15.17;77.70;101525.41;1054633;28;1716;-61
2021/11/12 06:29:46;;;;;;;;;;;;;;;15.16;78.04;101515.63;1053519;28;1575;-61
2021/11/12 06:30:36;;;;;;;;;;;;;;;15.16;77.29;101522.84;1053815;28;1965;-60
2021/11/12 06:31:26;;;;;;;;;;;;;;;15.14;77.88;101520.25;1055695;28;1482;-61
2021/11/12 06:32:18;;;;;;;;;;;;;;;15.14;77.40;101517.56;1056360;28;1360;-60
2021/11/12 06:33:08;;;;;;;;;;;;;;;15.13;77.49;101523.91;1053508;28;1480;-61
2021/11/12 06:33:59;;;;;;;;;;;;;;;15.13;77.93;101528.41;1054753;28;1350;-61
2021/11/12 06:34:50;;;;;;;;;;;;;;;15.12;77.48;101532.06;1053346;28;1612;-61
2021/11/12 06:35:41;;;;;;;;;;;;;;;15.11;77.50;101535.72;1052384;28;1563;-61
2021/11/12 06:36:31;;;;;;;;;;;;;;;15.10;77.78;101542.91;1054868;28;1486;-60
2021/11/12 06:37:22;;;;;;;;;;;;;;;15.10;77.26;101539.38;1055643;28;1555;-60
2021/11/12 06:38:15;;;;;;;;;;;;;;;15.08;76.91;101542.16;1052816;28;1489;-60
2021/11/12 06:39:08;;;;;;;;;;;;;;;15.09;77.69;101537.66;1052642;28;1464;-59
2021/11/12 06:39:58;;;;;;;;;;;;;;;15.09;77.52;101543.03;1052894;28;1474;-59
2021/11/12 06:40:50;;;;;;;;;;;;;;;15.10;77.50;101544.75;1052604;28;1368;-60
2021/11/12 06:42:48;;;;;;;;;;;;;;;15.08;77.10;101538.63;1052474;28;1749;-59
2021/11/12 06:43:52;;;;;;;;;;;;;;;15.07;77.23;101534.22;1053629;28;1488;-60
2021/11/12 06:49:17;;;;;;;;;;;;;;;15.08;77.40;101533.25;1052987;28;1505;-59
2021/11/12 06:49:33;;;;;;;;;;;;;;;15.01;77.34;101534.69;1053300;28;1456;-60
2021/11/12 06:50:23;;;;;;;;;;;;;;;15.00;77.62;101539.19;1053432;28;1947;-59
2021/11/12 06:51:14;;;;;;;;;;;;;;;14.99;77.17;101540.16;1053005;28;1413;-59
2021/11/12 06:52:05;;;;;;;;;;;;;;;14.99;77.12;101536.63;1052373;28;1546;-60
2021/11/12 06:52:55;;;;;;;;;;;;;;;14.99;76.89;101533.94;1053104;28;1452;-59
2021/11/12 06:53:45;;;;;;;;;;;;;;;14.99;77.46;101531.25;1052671;28;1639;-60
2021/11/12 06:54:36;;;;;;;;;;;;;;;14.98;77.33;101527.72;1052235;28;1555;-60
2021/11/12 06:55:26;;;;;;;;;;;;;;;14.97;77.52;101517.09;1050513;28;1498;-60
2021/11/12 06:56:19;;;;;;;;;;;;;;;14.97;77.08;101514.41;1055770;28;1421;-60
2021/11/12 06:57:10;;;;;;;;;;;;;;;14.96;76.92;101520.75;1051953;28;1803;-60
2021/11/12 06:58:00;;;;;;;;;;;;;;;14.94;77.21;101519.03;1053028;28;823;-60
2021/11/12 06:58:51;;;;;;;;;;;;;;;14.94;76.95;101513.66;1052651;28;1878;-60
2021/11/12 06:59:41;;;;;;;;;;;;;;;14.94;77.36;101505.59;1054471;28;1815;-60
2021/11/12 07:00:32;;;;;;;;;;;;;;;14.93;77.50;101503.88;1056767;28;783;-60
2021/11/12 07:01:24;;;;;;;;;;;;;;;14.93;77.22;101509.25;1056722;28;659;-60
2021/11/12 07:02:15;;;;;;;;;;;;;;;14.91;77.51;101513.88;1056820;28;618;-60
2021/11/12 07:03:06;;;;;;;;;;;;;;;14.92;76.82;101515.59;1056562;28;744;-59
2021/11/12 07:03:56;;;;;;;;;;;;;;;14.92;76.95;101512.03;1056607;28;988;-60
2021/11/12 07:04:47;;;;;;;;;;;;;;;14.91;77.72;101513.88;1056817;28;738;-59
2021/11/12 07:05:37;;;;;;;;;;;;;;;14.92;77.13;101520.94;1056557;28;947;-60
2021/11/12 07:06:28;;;;;;;;;;;;;;;14.91;77.21;101513.88;1056707;28;696;-60
2021/11/12 07:07:18;;;;;;;;;;;;;;;14.93;77.49;101516.44;1056452;28;625;-60
2021/11/12 07:08:09;;;;;;;;;;;;;;;14.92;77.38;101522.78;1056754;28;832;-60
2021/11/12 07:08:59;;;;;;;;;;;;;;;14.91;76.72;101519.25;1053884;28;1806;-59
2021/11/12 07:09:51;;;;;;;;;;;;;;;14.91;76.88;101519.25;1052201;28;755;-61
2021/11/12 07:10:41;;;;;;;;;;;;;;;14.91;76.90;101521.91;1052029;28;1898;-59
2021/11/12 07:11:32;;;;;;;;;;;;;;;14.92;77.26;101522.78;1051866;28;550;-59
2021/11/12 07:12:22;;;;;;;;;;;;;;;14.91;76.74;101521.06;1051778;28;827;-59
2021/11/12 07:13:13;;;;;;;;;;;;;;;14.89;77.01;101518.50;1051939;28;790;-59
2021/11/12 07:14:06;;;;;;;;;;;;;;;14.88;77.38;101516.78;1052183;28;754;-60
2021/11/12 07:14:57;;;;;;;;;;;;;;;14.88;77.07;101518.59;1052467;28;803;-59
2021/11/12 07:15:47;;;;;;;;;;;;;;;14.88;76.94;101518.59;1052085;28;743;-59